Time;durP1;ratioP1;P1;durP2;ratioP2;P2;SDS_P1;SDS_P2;PMS_P1;PMS_P2;Temp;Humidity;BMP_temperature;BMP_pressure;BME280_temperature;BME280_humidity;BME280_pressure;Samples;Min_cycle;Max_cycle;Signal;HPM_P1;HPM_P2
2022/02/12 00:00:52;;;;;;;18.08;2.42;;;-1.10;99.90;;;-2.90;100.00;102708.34;4997237;28;20049;-73
2022/02/12 00:03:18;;;;;;;16.17;2.10;;;-1.10;99.90;;;-2.88;100.00;102704.13;4995751;28;20061;-73
2022/02/12 00:05:44;;;;;;;16.52;2.10;;;-1.10;99.90;;;-2.87;100.00;102708.47;4993458;28;20046;-73
2022/02/12 00:08:10;;;;;;;16.58;2.00;;;-1.10;99.90;;;-2.87;100.00;102705.91;4996624;28;20032;-74
2022/02/12 00:10:36;;;;;;;15.32;1.70;;;-1.10;99.90;;;-2.88;100.00;102691.22;5016812;28;20537;-74
2022/02/12 00:13:10;;;;;;;11.07;2.00;;;-1.10;99.90;;;-2.86;100.00;102693.88;4998567;28;20018;-74
2022/02/12 00:15:36;;;;;;;16.50;2.33;;;-1.10;99.90;;;-2.86;100.00;102694.75;4979448;28;20505;-74
2022/02/12 00:18:02;;;;;;;15.25;2.33;;;-1.10;99.90;;;-2.83;100.00;102691.41;4973617;28;20017;-73
2022/02/12 00:20:28;;;;;;;13.20;1.77;;;-1.00;99.90;;;-2.81;100.00;102687.19;4978622;28;20024;-74
2022/02/12 00:22:54;;;;;;;9.75;1.60;;;-1.00;99.90;;;-2.77;100.00;102697.69;4995009;28;20477;-74
2022/02/12 00:25:20;;;;;;;17.75;4.57;;;-1.00;99.90;;;-2.75;100.00;102708.94;4973382;28;20022;-74
2022/02/12 00:27:46;;;;;;;18.67;2.30;;;-0.90;99.90;;;-2.72;100.00;102703.94;4972997;28;20555;-74
2022/02/12 00:30:14;;;;;;;16.67;2.00;;;-0.90;99.90;;;-2.70;100.00;102702.28;4981074;28;20482;-74
2022/02/12 00:32:40;;;;;;;17.08;1.80;;;-0.90;99.90;;;-2.68;100.00;102710.06;4991608;28;20111;-74
2022/02/12 00:35:06;;;;;;;13.85;1.63;;;-0.90;99.90;;;-2.71;100.00;102708.25;4961076;28;20037;-74
2022/02/12 00:37:32;;;;;;;5.72;1.88;;;-0.90;99.90;;;-2.73;100.00;102707.31;4966854;28;20454;-75
2022/02/12 00:39:59;;;;;;;22.70;2.72;;;-1.00;99.90;;;-2.76;100.00;102714.94;5019195;28;20080;-74
2022/02/12 00:42:26;;;;;;;14.48;1.90;;;-1.00;99.90;;;-2.78;100.00;102715.69;4972831;28;20029;-75
2022/02/12 00:44:52;;;;;;;7.78;1.60;;;-1.00;99.90;;;-2.79;100.00;102716.50;4978061;28;20045;-74
2022/02/12 00:47:19;;;;;;;12.13;2.45;;;-1.00;99.90;;;-2.79;100.00;102727.69;4990418;28;20018;-74
2022/02/12 00:49:45;;;;;;;15.90;1.77;;;-1.00;99.90;;;-2.79;100.00;102719.94;4954970;28;20037;-74
2022/02/12 00:52:11;;;;;;;21.58;3.60;;;-1.00;99.90;;;-2.77;100.00;102720.03;4996319;28;20041;-73
2022/02/12 00:54:37;;;;;;;15.85;2.47;;;-1.00;99.90;;;-2.76;100.00;102722.69;4973090;28;20044;-74
2022/02/12 00:57:04;;;;;;;15.50;2.15;;;-1.00;99.90;;;-2.74;100.00;102722.75;4955611;28;20133;-74
2022/02/12 00:59:30;;;;;;;19.48;2.88;;;-0.90;99.90;;;-2.75;100.00;102729.56;4994164;28;20100;-74
2022/02/12 01:01:56;;;;;;;15.93;2.92;;;-0.90;99.90;;;-2.71;100.00;102728.00;4991443;28;20014;-74
2022/02/12 01:04:22;;;;;;;16.48;2.47;;;-0.90;99.90;;;-2.73;100.00;102730.53;5014621;28;20063;-74
2022/02/12 01:06:49;;;;;;;13.95;2.47;;;-0.90;99.90;;;-2.73;100.00;102727.06;4989126;28;20021;-74
2022/02/12 01:09:15;;;;;;;11.20;2.05;;;-0.90;99.90;;;-2.74;100.00;102730.47;5009708;28;20121;-74
2022/02/12 01:11:41;;;;;;;10.07;1.73;;;-0.90;99.90;;;-2.75;100.00;102734.72;4977318;28;20037;-74
2022/02/12 01:14:07;;;;;;;10.05;2.10;;;-0.30;99.90;;;-2.76;100.00;102743.31;5003964;28;20083;-73
2022/02/12 01:16:33;;;;;;;12.75;2.25;;;-1.00;99.90;;;-2.75;100.00;102737.31;4992667;28;20022;-72
2022/02/12 01:18:59;;;;;;;8.80;1.67;;;-1.00;99.90;;;-2.75;100.00;102745.06;4982858;28;20025;-75
2022/02/12 01:21:25;;;;;;;15.57;2.33;;;-0.90;99.90;;;-2.75;100.00;102742.47;4963819;28;20029;-74
2022/02/12 01:23:53;;;;;;;17.55;2.20;;;-1.00;99.90;;;-2.76;100.00;102747.59;4995064;28;20025;-74
2022/02/12 01:26:19;;;;;;;11.55;2.60;;;-1.00;99.90;;;-2.78;100.00;102744.94;4958910;28;20394;-73
2022/02/12 01:28:45;;;;;;;15.93;1.98;;;-1.00;99.90;;;-2.77;100.00;102740.66;5000912;28;20034;-74
2022/02/12 01:31:11;;;;;;;10.38;1.83;;;-1.00;99.90;;;-2.78;100.00;102739.78;5012819;28;20505;-74
2022/02/12 01:33:37;;;;;;;10.35;2.28;;;-1.00;99.90;;;-2.81;100.00;102734.47;4961317;28;20025;-74
2022/02/12 01:36:03;;;;;;;9.82;2.50;;;-1.00;99.90;;;-2.81;100.00;102736.19;4978223;28;20035;-74
2022/02/12 01:38:29;;;;;;;11.20;2.45;;;-1.00;99.90;;;-2.83;100.00;102746.47;4988646;28;20026;-74
2022/02/12 01:40:58;;;;;;;11.93;2.70;;;-1.00;99.90;;;-2.84;100.00;102747.25;5000452;28;20505;-74
2022/02/12 01:43:24;;;;;;;15.93;2.38;;;-1.00;99.90;;;-2.85;100.00;102745.53;4958964;28;20026;-74
2022/02/12 01:45:50;;;;;;;21.38;3.63;;;-1.00;99.90;;;-2.84;100.00;102754.13;4962043;28;20039;-73
2022/02/12 01:48:16;;;;;;;8.57;1.92;;;-1.00;99.90;;;-2.86;100.00;102750.59;4987674;28;20026;-74
2022/02/12 01:50:42;;;;;;;13.98;2.83;;;-1.00;99.90;;;-2.87;100.00;102747.16;5008354;28;20021;-74
2022/02/12 01:53:11;;;;;;;26.25;4.20;;;-1.00;99.90;;;-2.86;100.00;102746.31;4960761;28;20468;-74
2022/02/12 01:55:36;;;;;;;11.82;3.00;;;-1.00;99.90;;;-2.85;100.00;102742.94;4979840;28;20393;-75
2022/02/12 01:58:06;;;;;;;23.52;4.50;;;-1.00;99.90;;;-2.84;100.00;102743.81;4989478;28;20022;-74
2022/02/12 02:00:32;;;;;;;16.85;2.60;;;-1.00;99.90;;;-2.84;100.00;102744.69;5002966;28;20025;-74
2022/02/12 02:02:58;;;;;;;17.85;2.90;;;-1.00;99.90;;;-2.84;100.00;102739.53;4974908;28;20033;-74
2022/02/12 02:05:26;;;;;;;16.48;2.38;;;-1.00;99.90;;;-2.88;100.00;102738.50;4985741;28;20029;-74
2022/02/12 02:07:53;;;;;;;12.43;2.83;;;-1.10;99.90;;;-2.92;100.00;102741.78;4971040;28;20023;-74
2022/02/12 02:10:20;;;;;;;13.75;2.90;;;-1.10;99.90;;;-2.96;100.00;102741.59;4970420;28;20025;-74
2022/02/12 02:12:46;;;;;;;14.48;2.65;;;-1.10;99.90;;;-2.99;100.00;102738.91;4957017;28;20121;-75
2022/02/12 02:15:11;;;;;;;15.52;2.58;;;-1.20;99.90;;;-3.00;100.00;102743.19;4997144;28;20107;-74
2022/02/12 02:17:37;;;;;;;10.82;2.45;;;-1.20;99.90;;;-3.04;100.00;102750.72;4984223;28;20109;-74
2022/02/12 02:20:07;;;;;;;13.35;2.78;;;-1.20;99.90;;;-3.04;100.00;102755.88;4984455;28;20668;-74
2022/02/12 02:22:56;;;;;;;18.73;4.03;;;-1.30;99.90;;;-3.08;100.00;102748.84;5038537;28;20029;-74
2022/02/12 02:25:23;;;;;;;18.23;2.47;;;-1.30;99.90;;;-3.14;100.00;102745.16;4966699;28;22220;-74
2022/02/12 02:27:53;;;;;;;13.07;2.50;;;-1.30;99.90;;;-3.16;100.00;102741.66;4996872;28;20029;-74
2022/02/12 02:30:22;;;;;;;12.38;2.58;;;-1.40;99.90;;;-3.26;100.00;102736.94;4980355;28;21446;-75
2022/02/12 02:32:49;;;;;;;15.10;2.50;;;-1.50;99.90;;;-3.36;100.00;102729.63;5003079;28;20038;-74
2022/02/12 02:35:18;;;;;;;7.72;3.63;;;-1.60;99.90;;;-3.47;100.00;102728.31;4996134;28;20039;-75
2022/02/12 02:37:46;;;;;;;14.80;2.88;;;-1.70;99.90;;;-3.56;100.00;102736.50;4997260;28;20025;-74
2022/02/12 02:40:29;;;;;;;24.75;3.08;;;-1.70;99.90;;;-3.59;100.00;102738.94;4975852;28;20047;-75
2022/02/12 02:42:54;;;;;;;23.67;3.10;;;-1.80;99.90;;;-3.63;100.00;102743.06;4997703;28;20034;-74
2022/02/12 02:45:20;;;;;;;17.80;3.10;;;-1.80;99.90;;;-3.61;100.00;102746.56;4990418;28;20018;-74
2022/02/12 02:47:46;;;;;;;21.45;3.13;;;-1.70;99.90;;;-3.57;100.00;102748.47;4999092;28;20033;-75
2022/02/12 02:56:05;;;;;;;19.23;3.20;;;-1.60;99.90;;;-3.40;100.00;102756.06;4990710;28;20049;-74
2022/02/12 02:58:36;;;;;;;21.67;3.58;;;-1.60;99.90;;;-3.39;100.00;102758.72;4977285;28;20048;-74
2022/02/12 03:01:14;;;;;;;15.35;2.85;;;-1.60;99.90;;;-3.39;100.00;102756.16;4978688;28;20037;-75
2022/02/12 03:03:44;;;;;;;10.48;3.13;;;-1.60;99.90;;;-3.38;100.00;102754.44;4992452;28;20501;-74
2022/02/12 03:06:12;;;;;;;19.58;4.10;;;-1.50;99.90;;;-3.34;100.00;102751.19;4987078;28;20063;-74
2022/02/12 03:08:40;;;;;;;22.70;3.30;;;-1.50;99.90;;;-3.32;100.00;102754.72;4990418;28;20052;-74
2022/02/12 03:11:08;;;;;;;23.90;3.75;;;-1.50;99.90;;;-3.27;100.00;102765.22;4982617;28;20509;-74
2022/02/12 03:13:34;;;;;;;16.20;3.65;;;-1.40;99.90;;;-3.22;100.00;102761.13;4986070;28;20386;-74
2022/02/12 03:16:00;;;;;;;16.88;3.15;;;-1.40;99.90;;;-3.18;100.00;102757.88;4994387;28;20064;-74
2022/02/12 03:18:27;;;;;;;21.98;3.30;;;-1.40;99.90;;;-3.18;100.00;102757.88;4980383;28;20038;-74
2022/02/12 03:20:53;;;;;;;24.73;4.60;;;-1.30;99.90;;;-3.17;100.00;102754.50;5006423;28;20018;-74
2022/02/12 03:23:22;;;;;;;23.98;3.70;;;-1.30;99.90;;;-3.17;100.00;102755.38;4984787;28;20030;-74
2022/02/12 03:25:48;;;;;;;20.05;4.70;;;-1.30;99.90;;;-3.18;100.00;102761.31;5000177;28;20029;-74
2022/02/12 03:28:14;;;;;;;20.65;3.22;;;-1.30;99.90;;;-3.18;100.00;102757.88;5001507;28;20036;-75
2022/02/12 03:30:46;;;;;;;18.52;3.88;;;-1.30;99.90;;;-3.18;100.00;102763.88;4969010;28;20079;-74
2022/02/12 03:33:13;;;;;;;31.70;5.18;;;-1.40;99.90;;;-3.18;100.00;102763.03;4991240;28;20026;-75
2022/02/12 03:35:39;;;;;;;29.35;3.40;;;-1.40;99.90;;;-3.18;100.00;102766.47;4974911;28;20030;-74
2022/02/12 03:38:26;;;;;;;17.00;3.03;;;-1.30;99.90;;;-3.18;100.00;102765.59;4982272;28;20021;-74
2022/02/12 03:40:56;;;;;;;17.42;3.33;;;-1.30;99.90;;;-3.18;100.00;102768.16;4973701;28;20107;-73
2022/02/12 03:43:22;;;;;;;21.55;3.40;;;-1.30;99.90;;;-3.19;100.00;102769.88;4981936;28;20026;-74
2022/02/12 03:45:48;;;;;;;19.27;3.45;;;-1.30;99.90;;;-3.20;100.00;102769.81;4981107;28;20025;-74
2022/02/12 03:48:15;;;;;;;16.38;3.28;;;-1.30;99.90;;;-3.24;100.00;102773.06;4996034;28;20117;-74
2022/02/12 03:50:42;;;;;;;20.85;3.03;;;-1.40;99.90;;;-3.25;100.00;102777.34;4997226;28;20035;-75
2022/02/12 03:53:09;;;;;;;22.10;3.40;;;-1.40;99.90;;;-3.25;100.00;102779.91;5022287;28;20029;-74
2022/02/12 03:55:39;;;;;;;23.05;3.45;;;-1.40;99.90;;;-3.25;100.00;102777.34;4980974;28;20097;-74
2022/02/12 03:58:09;;;;;;;17.90;2.83;;;-1.40;99.90;;;-3.23;100.00;102773.13;4998369;28;20025;-74
2022/02/12 04:00:41;;;;;;;14.68;3.72;;;-1.40;99.90;;;-3.21;100.00;102765.47;4973255;28;20038;-74
2022/02/12 04:03:07;;;;;;;26.35;3.35;;;-1.40;99.90;;;-3.21;100.00;102774.09;5013279;28;20117;-74
2022/02/12 04:05:35;;;;;;;21.50;3.45;;;-1.30;99.90;;;-3.20;100.00;102769.81;5002570;28;20033;-74
2022/02/12 04:08:01;;;;;;;18.83;3.30;;;-1.40;99.90;;;-3.19;100.00;102766.44;4981841;28;20026;-73
2022/02/12 04:10:28;;;;;;;19.42;3.15;;;-1.30;99.90;;;-3.20;100.00;102759.50;5020623;28;20093;-74
2022/02/12 04:12:55;;;;;;;28.08;3.47;;;-1.30;99.90;;;-3.18;100.00;102769.03;4981502;28;20041;-74
2022/02/12 04:15:25;;;;;;;24.23;3.08;;;-1.30;99.90;;;-3.19;100.00;102762.16;4971884;28;20816;-74
2022/02/12 04:17:52;;;;;;;23.13;3.95;;;-1.40;99.90;;;-3.24;100.00;102758.50;4991136;28;20033;-73
2022/02/12 04:20:26;;;;;;;24.00;3.30;;;-1.40;99.90;;;-3.23;100.00;102762.81;5006405;28;20018;-73
2022/02/12 04:22:52;;;;;;;21.88;3.55;;;-1.40;99.90;;;-3.24;100.00;102762.75;4987045;28;20052;-74
2022/02/12 04:25:23;;;;;;;22.17;4.40;;;-1.40;99.90;;;-3.27;100.00;102758.34;5001366;28;20036;-74
2022/02/12 04:27:49;;;;;;;19.30;3.13;;;-1.40;99.90;;;-3.31;100.00;102756.47;4984713;28;20595;-74
2022/02/12 04:30:16;;;;;;;24.38;3.38;;;-2.00;99.90;;;-3.33;100.00;102766.69;4999435;28;20030;-74
2022/02/12 04:32:43;;;;;;;19.95;3.20;;;-1.50;99.90;;;-3.39;100.00;102761.28;5017100;28;20120;-74
2022/02/12 04:35:13;;;;;;;16.67;2.90;;;-1.60;99.90;;;-3.42;100.00;102762.84;5009675;28;20057;-74
2022/02/12 04:37:44;;;;;;;19.58;3.17;;;-1.50;99.90;;;-3.46;100.00;102761.81;4999367;28;20034;-74
2022/02/12 04:40:11;;;;;;;21.75;4.15;;;-1.60;99.90;;;-3.46;100.00;102761.81;4989453;28;20034;-74
2022/02/12 04:42:37;;;;;;;19.90;3.88;;;-1.60;99.90;;;-3.46;100.00;102763.53;4986865;28;20158;-74
2022/02/12 04:45:04;;;;;;;20.23;3.20;;;-1.60;99.90;;;-3.45;100.00;102758.44;4980793;28;20549;-74
2022/02/12 04:47:30;;;;;;;24.73;3.65;;;-1.60;99.90;;;-3.43;100.00;102753.38;4999323;28;20040;-74
2022/02/12 04:49:56;;;;;;;21.27;3.53;;;-1.60;99.90;;;-3.43;100.00;102754.25;5008012;28;20036;-75
2022/02/12 04:52:25;;;;;;;14.57;2.65;;;-1.60;99.90;;;-3.46;100.00;102750.66;4983920;28;20055;-74
2022/02/12 04:54:51;;;;;;;17.50;3.45;;;-1.60;99.90;;;-3.49;100.00;102746.25;4993847;28;20161;-74
2022/02/12 04:57:17;;;;;;;16.00;3.33;;;-1.70;99.90;;;-3.49;100.00;102750.53;4979115;28;20517;-74
2022/02/12 04:59:44;;;;;;;23.30;3.72;;;-1.60;99.90;;;-3.48;100.00;102747.13;5000853;28;20632;-75
2022/02/12 05:02:10;;;;;;;23.95;4.55;;;-1.60;99.90;;;-3.46;100.00;102748.06;5024923;28;20045;-73
2022/02/12 05:04:36;;;;;;;23.67;3.35;;;-1.60;99.90;;;-3.47;100.00;102742.06;4966463;28;20417;-74
2022/02/12 05:07:03;;;;;;;24.55;3.58;;;-1.70;99.90;;;-3.48;100.00;102741.97;4990316;28;20443;-74
2022/02/12 05:09:31;;;;;;;20.65;3.60;;;-1.70;99.90;;;-3.53;100.00;102723.75;5000867;28;20021;-74
2022/02/12 05:11:57;;;;;;;23.92;3.25;;;-1.70;99.90;;;-3.56;100.00;102729.66;4999980;28;20050;-74
2022/02/12 05:14:24;;;;;;;25.50;3.60;;;-1.70;99.90;;;-3.55;100.00;102720.22;5001689;28;20018;-74
2022/02/12 05:16:50;;;;;;;16.70;3.25;;;-1.70;99.90;;;-3.55;100.00;102715.94;4986261;28;20546;-74
2022/02/12 05:19:16;;;;;;;21.30;3.60;;;-1.70;99.90;;;-3.56;100.00;102711.63;5016743;28;20072;-74
2022/02/12 05:21:42;;;;;;;15.18;3.13;;;-1.70;99.90;;;-3.57;100.00;102711.56;4977418;28;23985;-74
2022/02/12 05:24:08;;;;;;;16.58;2.85;;;-1.70;99.90;;;-3.59;100.00;102711.47;4995227;28;20032;-75
2022/02/12 05:26:34;;;;;;;16.77;3.28;;;-1.70;99.90;;;-3.58;100.00;102715.81;5002371;28;20034;-74
2022/02/12 05:29:00;;;;;;;22.50;4.05;;;-1.70;99.90;;;-3.61;100.00;102702.81;4989865;28;20418;-74
2022/02/12 05:31:25;;;;;;;23.98;3.85;;;-1.70;99.90;;;-3.61;100.00;102705.38;5031046;28;20045;-74
2022/02/12 05:33:52;;;;;;;20.58;3.47;;;-1.70;99.90;;;-3.59;100.00;102706.31;4992780;28;20032;-74
2022/02/12 05:36:18;;;;;;;17.90;3.10;;;-1.70;99.90;;;-3.62;100.00;102703.63;4982605;28;20147;-74
2022/02/12 05:38:44;;;;;;;18.33;3.22;;;-1.80;99.90;;;-3.62;100.00;102715.63;4996828;28;20034;-75
2022/02/12 05:41:15;;;;;;;20.00;3.58;;;-1.80;99.90;;;-3.65;100.00;102707.75;4993950;28;20034;-74
2022/02/12 05:43:42;;;;;;;21.80;3.45;;;-1.80;99.90;;;-3.69;100.00;102711.91;5013621;28;20038;-75
2022/02/12 05:46:08;;;;;;;18.05;3.13;;;-1.80;99.90;;;-3.71;100.00;102705.81;4998801;28;20032;-75
2022/02/12 05:48:34;;;;;;;33.10;4.03;;;-1.80;99.90;;;-3.74;100.00;102705.66;5016512;28;20477;-74
2022/02/12 05:51:03;;;;;;;12.40;2.90;;;-1.90;99.90;;;-3.78;100.00;102693.47;4990543;28;20117;-74
2022/02/12 05:53:29;;;;;;;19.67;3.22;;;-1.90;99.90;;;-3.75;100.00;102698.78;5004778;28;20112;-74
2022/02/12 05:55:55;;;;;;;21.67;3.35;;;-1.80;99.90;;;-3.76;100.00;102692.75;4994936;28;20049;-74
2022/02/12 05:58:22;;;;;;;15.20;2.97;;;-1.90;99.90;;;-3.75;100.00;102699.63;4983639;28;20030;-75
2022/02/12 06:00:50;;;;;;;29.85;3.95;;;-1.90;99.90;;;-3.74;100.00;102693.69;4978188;28;20493;-75
2022/02/12 06:03:17;;;;;;;20.00;3.30;;;-1.90;99.90;;;-3.74;100.00;102692.78;4999139;28;20029;-75
2022/02/12 06:05:45;;;;;;;19.52;3.25;;;-1.90;99.90;;;-3.76;100.00;102686.69;4987973;28;20214;-73
2022/02/12 06:08:11;;;;;;;12.32;2.88;;;-1.90;99.90;;;-3.77;100.00;102697.81;4982222;28;20033;-75
2022/02/12 06:10:37;;;;;;;23.65;3.42;;;-1.90;99.90;;;-3.79;100.00;102691.72;4982837;28;20083;-75
2022/02/12 06:13:03;;;;;;;23.35;3.45;;;-1.90;99.90;;;-3.79;100.00;102689.16;4997113;28;20053;-75
2022/02/12 06:15:35;;;;;;;22.13;4.45;;;-1.90;99.90;;;-3.79;100.00;102694.28;5021623;28;20035;-75
2022/02/12 06:18:03;;;;;;;23.55;3.75;;;-1.90;99.90;;;-3.80;100.00;102703.72;4996254;28;20101;-75
2022/02/12 06:20:29;;;;;;;22.13;3.88;;;-1.90;99.90;;;-3.79;100.00;102702.03;5011795;28;20030;-75
2022/02/12 06:22:55;;;;;;;16.33;2.88;;;-1.90;99.90;;;-3.79;100.00;102700.31;4999923;28;20478;-75
2022/02/12 06:25:21;;;;;;;20.67;3.50;;;-2.00;99.90;;;-3.81;100.00;102706.22;4987576;28;20022;-76
2022/02/12 06:27:50;;;;;;;22.25;3.83;;;-2.00;99.90;;;-3.85;100.00;102702.63;4962078;28;20036;-75
2022/02/12 06:30:16;;;;;;;24.88;3.80;;;-2.00;99.90;;;-3.87;100.00;102711.97;4997478;28;20633;-74
2022/02/12 06:32:42;;;;;;;19.40;3.42;;;-2.00;99.90;;;-3.85;100.00;102710.34;5001549;28;20074;-75
2022/02/12 06:35:09;;;;;;;26.10;3.40;;;-2.00;99.90;;;-3.86;100.00;102702.56;4965612;28;20026;-74
2022/02/12 06:37:35;;;;;;;25.08;3.63;;;-2.00;99.90;;;-3.85;100.00;102712.03;4975761;28;20021;-75
2022/02/12 06:40:02;;;;;;;29.88;3.97;;;-2.00;99.90;;;-3.83;100.00;102707.84;4992393;28;20041;-75
2022/02/12 06:42:30;;;;;;;21.70;3.20;;;-2.00;99.90;;;-3.83;100.00;102706.13;4975338;28;20034;-74
2022/02/12 06:44:56;;;;;;;21.52;3.20;;;-2.00;99.90;;;-3.80;100.00;102715.69;4990540;28;20025;-74
2022/02/12 06:47:21;;;;;;;20.58;3.50;;;-2.00;99.90;;;-3.75;100.00;102720.25;4991751;28;20090;-74
2022/02/12 06:49:47;;;;;;;16.38;3.63;;;-2.00;99.90;;;-3.72;100.00;102716.91;4993347;28;20026;-75
2022/02/12 06:52:13;;;;;;;15.63;3.63;;;-2.00;99.90;;;-3.68;100.00;102717.94;5013942;28;20048;-75
2022/02/12 06:54:40;;;;;;;27.88;3.35;;;-2.00;99.90;;;-3.65;100.00;102726.69;4958109;28;20061;-74
2022/02/12 06:57:05;;;;;;;19.85;3.75;;;-1.90;99.90;;;-3.61;100.00;102725.09;4981348;28;20040;-75
2022/02/12 06:59:35;;;;;;;21.02;3.40;;;-1.90;99.90;;;-3.60;100.00;102721.72;4990864;28;20029;-75
2022/02/12 07:02:01;;;;;;;28.70;3.95;;;-1.90;99.90;;;-3.56;100.00;102727.06;4974513;28;20030;-74
2022/02/12 07:04:30;;;;;;;28.45;5.03;;;-1.80;99.90;;;-3.48;100.00;102721.38;5019436;28;20034;-74
2022/02/12 07:06:56;;;;;;;13.93;3.03;;;-1.80;99.90;;;-3.40;100.00;102714.84;5009542;28;21644;-75
2022/02/12 07:09:22;;;;;;;20.98;3.80;;;-1.70;99.90;;;-3.31;100.00;102730.69;4991901;28;20076;-75
2022/02/12 07:11:49;;;;;;;18.60;3.30;;;-1.70;99.90;;;-3.24;100.00;102725.00;4999288;28;20048;-75
2022/02/12 07:14:15;;;;;;;22.77;3.95;;;-1.60;99.90;;;-3.12;100.00;102728.06;4984146;28;20022;-74
2022/02/12 07:16:40;;;;;;;17.38;4.18;;;-1.50;99.90;;;-2.44;100.00;102722.16;5011796;28;20029;-74
2022/02/12 07:19:06;;;;;;;21.08;4.57;;;-1.10;99.90;;;1.59;100.00;102691.28;4992728;28;20561;-75
2022/02/12 07:21:34;;;;;;;21.90;4.30;;;-0.20;99.90;;;3.00;100.00;102691.41;4990105;28;20025;-75
2022/02/12 07:24:01;;;;;;;20.33;3.95;;;0.40;99.90;;;1.01;99.08;102732.31;5004263;28;20025;-75
2022/02/12 07:26:27;;;;;;;18.95;3.90;;;0.60;99.90;;;-0.11;98.43;102743.13;4995292;28;20560;-74
2022/02/12 07:28:53;;;;;;;21.70;3.65;;;0.50;99.90;;;-0.68;98.81;102746.50;5013874;28;20086;-74
2022/02/12 07:31:19;;;;;;;20.00;3.45;;;0.60;99.90;;;2.36;98.53;102730.13;5002501;28;20044;-74
2022/02/12 07:33:45;;;;;;;10.80;3.58;;;1.30;99.90;;;6.09;88.04;102730.19;4998620;28;20030;-77
2022/02/12 07:36:12;;;;;;;17.30;3.33;;;2.40;99.90;;;8.06;74.30;102754.69;4998736;28;20029;-74
2022/02/12 07:38:39;;;;;;;17.42;3.15;;;3.70;99.90;;;9.36;65.81;102778.44;4983491;28;20066;-73
2022/02/12 07:41:08;;;;;;;12.02;2.50;;;4.90;99.90;;;10.24;60.65;102795.03;4998697;28;21303;-74
2022/02/12 07:43:36;;;;;;;18.85;3.42;;;5.80;99.90;;;8.29;60.48;102812.31;4996087;28;20033;-74
2022/02/12 07:46:03;;;;;;;22.00;2.63;;;5.60;99.90;;;4.98;67.66;102817.34;4996886;28;20030;-74
2022/02/12 07:48:29;;;;;;;13.85;2.78;;;5.00;99.90;;;3.40;73.17;102830.00;5028321;28;20040;-74
2022/02/12 07:50:55;;;;;;;17.83;2.65;;;4.30;99.90;;;2.36;77.56;102846.25;4997247;28;20041;-74
2022/02/12 07:53:22;;;;;;;18.90;3.05;;;3.80;99.90;;;4.26;79.36;102836.53;4997328;28;20025;-74
2022/02/12 07:55:48;;;;;;;18.33;3.38;;;4.30;99.90;;;7.32;71.53;102836.09;4999272;28;20037;-74
2022/02/12 07:58:14;;;;;;;22.92;2.97;;;5.30;99.90;;;8.90;65.30;102842.72;4996802;28;20079;-74
2022/02/12 08:00:40;;;;;;;12.88;2.58;;;6.40;99.90;;;10.09;60.38;102857.53;4997298;28;20022;-73
2022/02/12 08:03:06;;;;;;;16.60;3.20;;;7.40;99.90;;;10.81;57.77;102860.19;4983337;28;20041;-74
2022/02/12 08:05:32;;;;;;;17.95;3.60;;;8.20;99.90;;;10.13;56.46;102878.56;5003006;28;20030;-73
2022/02/12 08:08:03;;;;;;;13.55;2.90;;;8.10;99.90;;;7.26;62.44;102872.78;4999838;28;20072;-74
2022/02/12 08:13:14;;;;;;;17.75;3.47;;;6.50;99.90;;;4.52;70.59;102869.91;5008176;28;20102;-74
2022/02/12 08:15:40;;;;;;;17.85;3.42;;;5.60;99.90;;;3.80;73.04;102856.72;4988946;28;20045;-74
2022/02/12 08:18:06;;;;;;;17.42;2.95;;;5.20;99.90;;;4.56;74.59;102856.03;4997693;28;20033;-73
2022/02/12 08:20:32;;;;;;;15.32;2.90;;;5.00;99.90;;;3.73;74.83;102857.47;4996414;28;20073;-74
2022/02/12 08:22:58;;;;;;;14.23;2.92;;;4.70;99.90;;;3.10;76.86;102850.31;5008097;28;20118;-74
2022/02/12 08:25:24;;;;;;;28.60;3.40;;;4.30;99.90;;;2.50;78.90;102855.22;5003277;28;20025;-74
2022/02/12 08:27:52;;;;;;;20.05;3.35;;;3.90;99.90;;;2.17;80.90;102856.25;4993765;28;20489;-74
2022/02/12 08:30:18;;;;;;;18.70;3.22;;;3.60;99.90;;;2.21;81.95;102857.19;4986144;28;20037;-73
2022/02/12 08:32:44;;;;;;;19.60;3.13;;;3.40;99.90;;;1.83;83.41;102855.47;5002102;28;20037;-74
2022/02/12 08:35:13;;;;;;;19.30;3.53;;;3.20;99.90;;;1.54;84.89;102854.75;5004059;28;20060;-73
2022/02/12 08:37:42;;;;;;;18.13;4.07;;;3.00;99.90;;;1.53;85.92;102846.94;5001830;28;20979;-74
2022/02/12 08:40:12;;;;;;;18.65;3.88;;;2.90;99.90;;;1.44;86.98;102848.44;5001297;28;20017;-74
2022/02/12 08:42:40;;;;;;;24.50;3.70;;;2.80;99.90;;;1.29;88.28;102839.41;5013809;28;20045;-74
2022/02/12 08:45:09;;;;;;;19.58;3.00;;;2.70;99.90;;;1.17;89.44;102833.06;5007300;28;20065;-74
2022/02/12 08:47:36;;;;;;;19.38;3.08;;;2.60;99.90;;;1.08;90.45;102830.25;5004041;28;20029;-74
2022/02/12 08:50:04;;;;;;;19.80;3.78;;;2.50;99.90;;;1.05;91.09;102826.69;4996814;28;20386;-73
2022/02/12 08:52:30;;;;;;;20.33;3.88;;;2.50;99.90;;;1.04;91.79;102820.63;5015676;28;20030;-74
2022/02/12 08:54:56;;;;;;;20.13;3.28;;;2.40;99.90;;;0.94;92.93;102824.66;5005685;28;20037;-73
2022/02/12 08:57:22;;;;;;;18.27;2.85;;;2.40;99.90;;;0.89;93.39;102810.72;5003122;28;20490;-74
2022/02/12 08:59:47;;;;;;;14.50;3.10;;;2.40;99.90;;;0.92;94.19;102812.50;5016149;28;20032;-74
2022/02/12 09:02:14;;;;;;;24.02;3.40;;;2.40;99.90;;;0.87;94.79;102814.97;4993341;28;20109;-73
2022/02/12 09:04:42;;;;;;;19.40;3.65;;;2.30;99.90;;;0.88;95.00;102808.94;5001179;28;20087;-74
2022/02/12 09:07:07;;;;;;;16.63;3.10;;;2.40;99.90;;;0.95;95.71;102813.47;5006622;28;20020;-73
2022/02/12 09:09:34;;;;;;;20.58;3.20;;;2.50;99.90;;;1.34;96.04;102812.75;5009406;28;20395;-74
2022/02/12 09:12:00;;;;;;;11.50;2.20;;;2.90;99.90;;;2.11;95.24;102795.44;5000394;28;20514;-73
2022/02/12 09:14:26;;;;;;;22.48;3.13;;;3.50;99.90;;;2.97;92.70;102794.56;4992716;28;20048;-73
2022/02/12 09:16:52;;;;;;;18.02;3.28;;;4.20;99.90;;;3.92;89.38;102792.59;4998079;28;20033;-73
2022/02/12 09:19:20;;;;;;;22.58;2.63;;;4.90;99.90;;;4.68;86.17;102790.94;4998643;28;20031;-74
2022/02/12 09:21:47;;;;;;;12.60;2.88;;;5.60;99.90;;;5.22;83.45;102804.53;4983930;28;20025;-74
2022/02/12 09:24:13;;;;;;;17.33;2.83;;;6.10;99.90;;;5.41;80.91;102812.53;5000150;28;20026;-74
2022/02/12 09:26:40;;;;;;;14.45;3.50;;;6.50;99.90;;;5.87;79.34;102810.22;5009721;28;20104;-73
2022/02/12 09:29:07;;;;;;;17.48;2.95;;;6.70;99.90;;;6.10;78.48;102815.66;5002530;28;20135;-73
2022/02/12 09:31:34;;;;;;;18.83;3.00;;;6.90;99.90;;;6.38;77.63;102815.78;4984692;28;20486;-73
2022/02/12 09:34:00;;;;;;;21.25;3.15;;;6.90;99.90;;;5.94;77.67;102819.88;4998877;28;20036;-73
2022/02/12 09:36:27;;;;;;;31.35;3.80;;;6.60;99.90;;;4.91;78.72;102821.63;4983926;28;20026;-75
2022/02/12 09:38:53;;;;;;;28.38;3.50;;;6.10;99.90;;;4.21;81.04;102812.13;4994895;28;20033;-73
2022/02/12 09:41:23;;;;;;;18.35;3.45;;;5.70;99.90;;;4.06;83.01;102807.59;5015184;28;20492;-73
2022/02/12 09:43:53;;;;;;;21.17;3.92;;;5.50;99.90;;;4.22;84.38;102800.81;4999153;28;20026;-73
2022/02/12 09:46:31;;;;;;;16.92;2.58;;;5.50;99.90;;;4.21;86.15;102796.50;4999742;28;20034;-74
2022/02/12 09:49:03;;;;;;;16.13;2.80;;;5.60;99.90;;;4.34;86.52;102799.22;5001424;28;20063;-73
2022/02/12 09:51:32;;;;;;;19.75;2.97;;;5.70;99.90;;;4.42;87.22;102793.25;4983752;28;20037;-74
2022/02/12 09:53:58;;;;;;;21.88;3.08;;;5.80;99.90;;;4.46;86.89;102786.34;4984306;28;20096;-73
2022/02/12 09:56:25;;;;;;;34.47;3.40;;;5.90;99.90;;;4.40;87.29;102783.66;4999210;28;20052;-73
2022/02/12 09:58:52;;;;;;;16.77;2.50;;;5.90;99.90;;;4.27;87.30;102778.28;5002854;28;20014;-73
2022/02/12 10:01:19;;;;;;;20.60;3.35;;;5.90;99.90;;;4.19;87.07;102774.72;4992126;28;20578;-74
2022/02/12 10:03:49;;;;;;;17.38;2.97;;;5.80;99.90;;;4.04;87.17;102772.78;5014618;28;20497;-73
2022/02/12 10:06:15;;;;;;;23.02;3.00;;;5.70;99.90;;;3.95;87.79;102774.38;5001907;28;20506;-73
2022/02/12 10:09:01;;;;;;;21.92;3.70;;;5.60;99.90;;;3.90;88.22;102759.56;4993015;28;20109;-73
2022/02/12 10:11:47;;;;;;;9.10;1.85;;;5.60;99.90;;;3.90;89.11;102769.97;5003755;28;20033;-74
2022/02/12 10:14:17;;;;;;;21.05;2.50;;;5.50;99.90;;;3.92;89.31;102771.75;5002236;28;20022;-74